Huvudsida
METAR-TAF:

METAR-TAF

Flygplatser :

Visby Airport

Visby, Gotland, Sverige

latitud: 57-40N, longitud: 018-21E, höjd: 51 m

Aktuellt väderrapport

Denna rapport gjordes för 15 minuter sedan, klockan 00:20 UTC
Vind 5 kt från syd
Temperatur 4°C
Fuktighet 100%
Tryck 1027 hPa
Sikt 10 km eller mer

METAR: ESSV 150020Z AUTO 19005KT 9999 SCT025/// 04/04 Q1027

Tid: 01:35 (00:35 UTC)

Väderprognos

Denna rapport gjordes för 4 timmar och 5 minuter sedan, klockan 20:30 UTC
Prognos gäller från 14 kl. 21 UTC till 14 kl. 23 UTC
Vind 5 kt från syd
Sikt 10 km eller mer
Spridda moln på en höjd av 2500 ft

TAF: ESSV 142030Z 1421/1423 19005KT 9999 SCT025

Aktuella väderrapporter och prognoser från 4000 flygplatser (METAR- och TAF-rapporter).

De tillgängliga stationerna syns som gula och röda prickar på kartan.

För musen över prickarna för att se namnen på stationerna.

Klicka sedan för att få väderrapporter och prognoser.

För att ändra kartan: Klicka på de gröna knapparna med ett svart kors på för att zooma in; den gröna knappen med ett streck på för att zooma ut; eller på de gröna pilarna för angränsande kartor.


METAR-TAF: